sensor_id;sensor_type;location;lat;lon;timestamp;pressure;altitude;pressure_sealevel;temperature;humidity
12172;BME280;6149;52.418;13.668;2022-12-08T00:00:19;100471.63;;;-0.95;100.00
12172;BME280;6149;52.418;13.668;2022-12-08T00:02:47;100468.16;;;-0.97;100.00
12172;BME280;6149;52.418;13.668;2022-12-08T00:05:15;100460.41;;;-0.99;100.00
12172;BME280;6149;52.418;13.668;2022-12-08T00:08:00;100463.00;;;-0.99;100.00
12172;BME280;6149;52.418;13.668;2022-12-08T00:10:45;100457.84;;;-1.04;100.00
12172;BME280;6149;52.418;13.668;2022-12-08T00:13:16;100462.16;;;-1.03;100.00
12172;BME280;6149;52.418;13.668;2022-12-08T00:15:45;100462.19;;;-1.06;100.00
12172;BME280;6149;52.418;13.668;2022-12-08T00:18:11;100462.19;;;-1.07;100.00
12172;BME280;6149;52.418;13.668;2022-12-08T00:20:39;100464.78;;;-1.09;100.00
12172;BME280;6149;52.418;13.668;2022-12-08T00:23:07;100463.94;;;-1.09;100.00
12172;BME280;6149;52.418;13.668;2022-12-08T00:25:35;100475.19;;;-1.10;100.00
12172;BME280;6149;52.418;13.668;2022-12-08T00:28:02;100474.28;;;-1.06;100.00
12172;BME280;6149;52.418;13.668;2022-12-08T00:30:30;100470.84;;;-1.07;100.00
12172;BME280;6149;52.418;13.668;2022-12-08T00:32:56;100463.94;;;-1.08;100.00
12172;BME280;6149;52.418;13.668;2022-12-08T00:35:25;100469.97;;;-1.07;100.00
12172;BME280;6149;52.418;13.668;2022-12-08T00:37:52;100462.19;;;-1.07;100.00
12172;BME280;6149;52.418;13.668;2022-12-08T00:40:18;100466.50;;;-1.06;100.00
12172;BME280;6149;52.418;13.668;2022-12-08T00:42:45;100455.22;;;-1.02;100.00
12172;BME280;6149;52.418;13.668;2022-12-08T00:45:12;100449.16;;;-0.99;100.00
12172;BME280;6149;52.418;13.668;2022-12-08T00:47:41;100439.63;;;-0.97;100.00
12172;BME280;6149;52.418;13.668;2022-12-08T00:50:09;100452.56;;;-0.93;100.00
12172;BME280;6149;52.418;13.668;2022-12-08T00:52:36;100446.50;;;-0.90;100.00
12172;BME280;6149;52.418;13.668;2022-12-08T00:55:03;100436.97;;;-0.88;100.00
12172;BME280;6149;52.418;13.668;2022-12-08T00:57:31;100437.81;;;-0.86;100.00
12172;BME280;6149;52.418;13.668;2022-12-08T00:59:58;100433.44;;;-0.81;100.00
12172;BME280;6149;52.418;13.668;2022-12-08T01:02:25;100435.16;;;-0.80;100.00
12172;BME280;6149;52.418;13.668;2022-12-08T01:04:55;100442.91;;;-0.77;100.00
12172;BME280;6149;52.418;13.668;2022-12-08T01:07:22;100441.19;;;-0.78;100.00
12172;BME280;6149;52.418;13.668;2022-12-08T01:09:49;100442.91;;;-0.76;100.00
12172;BME280;6149;52.418;13.668;2022-12-08T01:12:17;100435.06;;;-0.73;100.00
12172;BME280;6149;52.418;13.668;2022-12-08T01:14:44;100437.63;;;-0.71;100.00
12172;BME280;6149;52.418;13.668;2022-12-08T01:17:10;100440.22;;;-0.70;100.00
12172;BME280;6149;52.418;13.668;2022-12-08T01:19:38;100442.81;;;-0.68;100.00
12172;BME280;6149;52.418;13.668;2022-12-08T01:22:07;100439.31;;;-0.65;100.00
12172;BME280;6149;52.418;13.668;2022-12-08T01:24:35;100436.69;;;-0.64;100.00
12172;BME280;6149;52.418;13.668;2022-12-08T01:27:05;100433.22;;;-0.60;100.00
12172;BME280;6149;52.418;13.668;2022-12-08T01:29:32;100423.66;;;-0.56;100.00
12172;BME280;6149;52.418;13.668;2022-12-08T01:31:59;100427.94;;;-0.52;100.00
12172;BME280;6149;52.418;13.668;2022-12-08T01:34:26;100428.75;;;-0.49;100.00
12172;BME280;6149;52.418;13.668;2022-12-08T01:36:54;100431.34;;;-0.46;100.00
12172;BME280;6149;52.418;13.668;2022-12-08T01:39:22;100432.16;;;-0.44;100.00
12172;BME280;6149;52.418;13.668;2022-12-08T01:41:48;100434.75;;;-0.41;100.00
12172;BME280;6149;52.418;13.668;2022-12-08T01:44:54;100431.19;;;-0.37;100.00
12172;BME280;6149;52.418;13.668;2022-12-08T01:47:25;100424.22;;;-0.31;100.00
12172;BME280;6149;52.418;13.668;2022-12-08T01:49:54;100419.84;;;-0.28;100.00
12172;BME280;6149;52.418;13.668;2022-12-08T01:52:28;100414.63;;;-0.25;100.00
12172;BME280;6149;52.418;13.668;2022-12-08T01:55:03;100410.25;;;-0.23;100.00
12172;BME280;6149;52.418;13.668;2022-12-08T01:57:34;100403.31;;;-0.21;100.00
12172;BME280;6149;52.418;13.668;2022-12-08T02:00:06;100402.41;;;-0.18;100.00
12172;BME280;6149;52.418;13.668;2022-12-08T02:02:40;100403.25;;;-0.16;100.00
12172;BME280;6149;52.418;13.668;2022-12-08T02:05:15;100403.19;;;-0.12;100.00
12172;BME280;6149;52.418;13.668;2022-12-08T02:07:43;100392.78;;;-0.10;100.00
12172;BME280;6149;52.418;13.668;2022-12-08T02:10:15;100389.28;;;-0.08;100.00
12172;BME280;6149;52.418;13.668;2022-12-08T02:12:42;100388.38;;;-0.04;100.00
12172;BME280;6149;52.418;13.668;2022-12-08T02:15:09;100388.34;;;-0.02;100.00
12172;BME280;6149;52.418;13.668;2022-12-08T02:17:48;100387.41;;;0.02;100.00
12172;BME280;6149;52.418;13.668;2022-12-08T02:20:34;100383.03;;;0.04;100.00
12172;BME280;6149;52.418;13.668;2022-12-08T02:23:17;100373.50;;;0.06;100.00
12172;BME280;6149;52.418;13.668;2022-12-08T02:26:09;100377.75;;;0.10;100.00
12172;BME280;6149;52.418;13.668;2022-12-08T02:29:13;100374.28;;;0.13;100.00
12172;BME280;6149;52.418;13.668;2022-12-08T02:32:08;100366.44;;;0.14;100.00
12172;BME280;6149;52.418;13.668;2022-12-08T02:34:46;100380.28;;;0.16;100.00
12172;BME280;6149;52.418;13.668;2022-12-08T02:37:25;100367.25;;;0.18;100.00
12172;BME280;6149;52.418;13.668;2022-12-08T02:40:02;100367.25;;;0.19;100.00
12172;BME280;6149;52.418;13.668;2022-12-08T02:42:37;100361.16;;;0.20;100.00
12172;BME280;6149;52.418;13.668;2022-12-08T02:45:11;100363.72;;;0.23;100.00
12172;BME280;6149;52.418;13.668;2022-12-08T02:47:41;100369.81;;;0.22;100.00
12172;BME280;6149;52.418;13.668;2022-12-08T02:50:10;100359.41;;;0.22;100.00
12172;BME280;6149;52.418;13.668;2022-12-08T02:52:43;100356.81;;;0.22;100.00
12172;BME280;6149;52.418;13.668;2022-12-08T02:55:19;100351.59;;;0.22;100.00
12172;BME280;6149;52.418;13.668;2022-12-08T02:58:16;100347.25;;;0.24;100.00
12172;BME280;6149;52.418;13.668;2022-12-08T03:01:01;100345.47;;;0.26;100.00
12172;BME280;6149;52.418;13.668;2022-12-08T03:03:45;100342.00;;;0.27;100.00
12172;BME280;6149;52.418;13.668;2022-12-08T03:06:26;100337.69;;;0.26;100.00
12172;BME280;6149;52.418;13.668;2022-12-08T03:08:58;100334.19;;;0.27;100.00
12172;BME280;6149;52.418;13.668;2022-12-08T03:11:32;100334.19;;;0.29;100.00
12172;BME280;6149;52.418;13.668;2022-12-08T03:14:03;100329.84;;;0.29;100.00
12172;BME280;6149;52.418;13.668;2022-12-08T03:16:39;100332.47;;;0.26;100.00
12172;BME280;6149;52.418;13.668;2022-12-08T03:19:08;100322.03;;;0.29;100.00
12172;BME280;6149;52.418;13.668;2022-12-08T03:21:43;100311.63;;;0.29;100.00
12172;BME280;6149;52.418;13.668;2022-12-08T03:24:14;100313.31;;;0.32;100.00
12172;BME280;6149;52.418;13.668;2022-12-08T03:26:45;100308.97;;;0.32;100.00
12172;BME280;6149;52.418;13.668;2022-12-08T03:29:18;100314.06;;;0.39;100.00
12172;BME280;6149;52.418;13.668;2022-12-08T03:32:02;100309.78;;;0.36;100.00
12172;BME280;6149;52.418;13.668;2022-12-08T03:34:34;100304.53;;;0.38;100.00
12172;BME280;6149;52.418;13.668;2022-12-08T03:37:02;100295.06;;;0.37;100.00
12172;BME280;6149;52.418;13.668;2022-12-08T03:39:29;100299.34;;;0.38;100.00
12172;BME280;6149;52.418;13.668;2022-12-08T03:41:57;100291.53;;;0.38;100.00
12172;BME280;6149;52.418;13.668;2022-12-08T03:44:24;100292.41;;;0.38;100.00
12172;BME280;6149;52.418;13.668;2022-12-08T03:46:51;100285.44;;;0.39;100.00
12172;BME280;6149;52.418;13.668;2022-12-08T03:49:18;100282.84;;;0.39;100.00
12172;BME280;6149;52.418;13.668;2022-12-08T03:51:46;100274.16;;;0.40;100.00
12172;BME280;6149;52.418;13.668;2022-12-08T03:54:14;100277.59;;;0.42;100.00
12172;BME280;6149;52.418;13.668;2022-12-08T03:56:41;100267.19;;;0.42;100.00
12172;BME280;6149;52.418;13.668;2022-12-08T03:59:09;100269.81;;;0.40;100.00
12172;BME280;6149;52.418;13.668;2022-12-08T04:01:37;100264.63;;;0.40;100.00
12172;BME280;6149;52.418;13.668;2022-12-08T04:04:04;100258.50;;;0.43;100.00
12172;BME280;6149;52.418;13.668;2022-12-08T04:06:32;100262.00;;;0.42;100.00
12172;BME280;6149;52.418;13.668;2022-12-08T04:09:00;100257.66;;;0.42;100.00
12172;BME280;6149;52.418;13.668;2022-12-08T04:11:28;100245.56;;;0.40;100.00
12172;BME280;6149;52.418;13.668;2022-12-08T04:13:55;100248.16;;;0.40;100.00
12172;BME280;6149;52.418;13.668;2022-12-08T04:16:23;100248.97;;;0.43;100.00
12172;BME280;6149;52.418;13.668;2022-12-08T04:18:51;100244.66;;;0.42;100.00
12172;BME280;6149;52.418;13.668;2022-12-08T04:21:19;100239.44;;;0.44;100.00
12172;BME280;6149;52.418;13.668;2022-12-08T04:23:46;100235.09;;;0.44;100.00
12172;BME280;6149;52.418;13.668;2022-12-08T04:26:16;100238.53;;;0.45;100.00
12172;BME280;6149;52.418;13.668;2022-12-08T04:28:44;100242.84;;;0.46;100.00
12172;BME280;6149;52.418;13.668;2022-12-08T04:31:11;100241.91;;;0.51;100.00
12172;BME280;6149;52.418;13.668;2022-12-08T04:33:38;100243.63;;;0.51;100.00
12172;BME280;6149;52.418;13.668;2022-12-08T04:36:07;100237.56;;;0.52;100.00
12172;BME280;6149;52.418;13.668;2022-12-08T04:38:36;100236.69;;;0.51;100.00
12172;BME280;6149;52.418;13.668;2022-12-08T04:41:28;100240.94;;;0.57;100.00
12172;BME280;6149;52.418;13.668;2022-12-08T04:43:56;100241.88;;;0.53;100.00
12172;BME280;6149;52.418;13.668;2022-12-08T04:46:23;100239.28;;;0.53;100.00
12172;BME280;6149;52.418;13.668;2022-12-08T04:48:49;100235.78;;;0.54;100.00
12172;BME280;6149;52.418;13.668;2022-12-08T04:51:17;100234.06;;;0.53;100.00
12172;BME280;6149;52.418;13.668;2022-12-08T04:53:46;100236.63;;;0.54;100.00
12172;BME280;6149;52.418;13.668;2022-12-08T04:56:13;100231.44;;;0.54;100.00
12172;BME280;6149;52.418;13.668;2022-12-08T04:58:42;100223.56;;;0.59;100.00
12172;BME280;6149;52.418;13.668;2022-12-08T05:01:13;100221.84;;;0.58;100.00
12172;BME280;6149;52.418;13.668;2022-12-08T05:03:41;100212.28;;;0.58;100.00
12172;BME280;6149;52.418;13.668;2022-12-08T05:06:12;100223.53;;;0.60;100.00
12172;BME280;6149;52.418;13.668;2022-12-08T05:08:40;100214.84;;;0.61;100.00
12172;BME280;6149;52.418;13.668;2022-12-08T05:11:09;100217.44;;;0.61;100.00
12172;BME280;6149;52.418;13.668;2022-12-08T05:13:37;100214.84;;;0.61;100.00
12172;BME280;6149;52.418;13.668;2022-12-08T05:16:07;100204.41;;;0.63;100.00
12172;BME280;6149;52.418;13.668;2022-12-08T05:18:38;100207.84;;;0.65;100.00
12172;BME280;6149;52.418;13.668;2022-12-08T05:21:06;100214.72;;;0.68;100.00
12172;BME280;6149;52.418;13.668;2022-12-08T05:23:35;100212.16;;;0.66;100.00
12172;BME280;6149;52.418;13.668;2022-12-08T05:26:03;100206.88;;;0.69;100.00
12172;BME280;6149;52.418;13.668;2022-12-08T05:28:30;100207.81;;;0.66;100.00
12172;BME280;6149;52.418;13.668;2022-12-08T05:30:57;100207.72;;;0.71;100.00
12172;BME280;6149;52.418;13.668;2022-12-08T05:33:24;100205.13;;;0.71;100.00
12172;BME280;6149;52.418;13.668;2022-12-08T05:35:52;100212.06;;;0.71;100.00
12172;BME280;6149;52.418;13.668;2022-12-08T05:38:20;100209.31;;;0.77;100.00
12172;BME280;6149;52.418;13.668;2022-12-08T05:40:47;100215.28;;;0.82;100.00
12172;BME280;6149;52.418;13.668;2022-12-08T05:43:14;100214.41;;;0.83;100.00
12172;BME280;6149;52.418;13.668;2022-12-08T05:45:41;100217.88;;;0.83;100.00
12172;BME280;6149;52.418;13.668;2022-12-08T05:48:07;100213.53;;;0.82;100.00
12172;BME280;6149;52.418;13.668;2022-12-08T05:50:34;100214.41;;;0.83;100.00
12172;BME280;6149;52.418;13.668;2022-12-08T05:53:03;100220.38;;;0.88;100.00
12172;BME280;6149;52.418;13.668;2022-12-08T05:55:31;100211.72;;;0.87;100.00
12172;BME280;6149;52.418;13.668;2022-12-08T05:57:59;100201.28;;;0.89;100.00
12172;BME280;6149;52.418;13.668;2022-12-08T06:00:27;100208.13;;;0.93;100.00
12172;BME280;6149;52.418;13.668;2022-12-08T06:02:55;100213.34;;;0.93;100.00
12172;BME280;6149;52.418;13.668;2022-12-08T06:05:21;100209.88;;;0.92;100.00
12172;BME280;6149;52.418;13.668;2022-12-08T06:07:48;100206.44;;;0.90;100.00
12172;BME280;6149;52.418;13.668;2022-12-08T06:10:16;100207.31;;;0.91;100.00
12172;BME280;6149;52.418;13.668;2022-12-08T06:12:43;100206.44;;;0.90;100.00
12172;BME280;6149;52.418;13.668;2022-12-08T06:15:11;100201.22;;;0.92;100.00
12172;BME280;6149;52.418;13.668;2022-12-08T06:17:38;100195.94;;;0.95;100.00
12172;BME280;6149;52.418;13.668;2022-12-08T06:20:07;100198.59;;;0.93;100.00
12172;BME280;6149;52.418;13.668;2022-12-08T06:22:34;100191.63;;;0.94;100.00
12172;BME280;6149;52.418;13.668;2022-12-08T06:25:02;100195.09;;;0.94;100.00
12172;BME280;6149;52.418;13.668;2022-12-08T06:27:32;100202.00;;;0.95;100.00
12172;BME280;6149;52.418;13.668;2022-12-08T06:30:00;100208.81;;;1.03;100.00
12172;BME280;6149;52.418;13.668;2022-12-08T06:32:27;100208.81;;;1.03;100.00
12172;BME280;6149;52.418;13.668;2022-12-08T06:34:53;100209.69;;;1.02;100.00
12172;BME280;6149;52.418;13.668;2022-12-08T06:37:21;100214.88;;;1.03;100.00
12172;BME280;6149;52.418;13.668;2022-12-08T06:39:50;100212.38;;;0.98;100.00
12172;BME280;6149;52.418;13.668;2022-12-08T06:42:16;100208.94;;;0.96;100.00
12172;BME280;6149;52.418;13.668;2022-12-08T06:45:05;100208.94;;;0.96;100.00
12172;BME280;6149;52.418;13.668;2022-12-08T06:47:32;100205.56;;;0.91;100.00
12172;BME280;6149;52.418;13.668;2022-12-08T06:50:00;100208.16;;;0.91;100.00
12172;BME280;6149;52.418;13.668;2022-12-08T06:52:27;100214.25;;;0.90;100.00
12172;BME280;6149;52.418;13.668;2022-12-08T06:54:53;100212.53;;;0.89;100.00
12172;BME280;6149;52.418;13.668;2022-12-08T06:57:22;100219.44;;;0.92;100.00
12172;BME280;6149;52.418;13.668;2022-12-08T06:59:52;100217.75;;;0.89;100.00
12172;BME280;6149;52.418;13.668;2022-12-08T07:02:21;100216.03;;;0.88;100.00
12172;BME280;6149;52.418;13.668;2022-12-08T07:04:50;100223.88;;;0.87;100.00
12172;BME280;6149;52.418;13.668;2022-12-08T07:07:16;100226.47;;;0.87;100.00
12172;BME280;6149;52.418;13.668;2022-12-08T07:09:44;100223.88;;;0.87;100.00
12172;BME280;6149;52.418;13.668;2022-12-08T07:12:11;100230.78;;;0.88;100.00
12172;BME280;6149;52.418;13.668;2022-12-08T07:14:39;100232.56;;;0.86;100.00
12172;BME280;6149;52.418;13.668;2022-12-08T07:17:06;100225.66;;;0.85;100.00
12172;BME280;6149;52.418;13.668;2022-12-08T07:19:38;100229.06;;;0.87;100.00
12172;BME280;6149;52.418;13.668;2022-12-08T07:22:05;100230.81;;;0.86;100.00
12172;BME280;6149;52.418;13.668;2022-12-08T07:24:32;100223.91;;;0.85;100.00
12172;BME280;6149;52.418;13.668;2022-12-08T07:27:00;100234.31;;;0.85;100.00
12172;BME280;6149;52.418;13.668;2022-12-08T07:29:29;100235.09;;;0.89;100.00
12172;BME280;6149;52.418;13.668;2022-12-08T07:31:56;100232.44;;;0.92;100.00
12172;BME280;6149;52.418;13.668;2022-12-08T07:34:23;100237.59;;;0.95;100.00
12172;BME280;6149;52.418;13.668;2022-12-08T07:36:56;100227.97;;;0.98;100.00
12172;BME280;6149;52.418;13.668;2022-12-08T07:39:24;100226.16;;;1.04;100.00
12172;BME280;6149;52.418;13.668;2022-12-08T07:41:51;100231.31;;;1.05;100.00
12172;BME280;6149;52.418;13.668;2022-12-08T07:44:18;100226.91;;;1.09;100.00
12172;BME280;6149;52.418;13.668;2022-12-08T07:46:46;100232.09;;;1.10;100.00
12172;BME280;6149;52.418;13.668;2022-12-08T07:49:13;100213.03;;;1.08;100.00
12172;BME280;6149;52.418;13.668;2022-12-08T07:51:39;100220.66;;;1.16;100.00
12172;BME280;6149;52.418;13.668;2022-12-08T07:54:10;100225.03;;;1.14;100.00
12172;BME280;6149;52.418;13.668;2022-12-08T07:56:38;100232.03;;;1.12;100.00
12172;BME280;6149;52.418;13.668;2022-12-08T07:59:06;100218.97;;;1.13;100.00
12172;BME280;6149;52.418;13.668;2022-12-08T08:01:34;100225.91;;;1.14;100.00
12172;BME280;6149;52.418;13.668;2022-12-08T08:04:02;100227.59;;;1.17;100.00
12172;BME280;6149;52.418;13.668;2022-12-08T08:06:30;100229.25;;;1.21;100.00
12172;BME280;6149;52.418;13.668;2022-12-08T08:08:58;100230.06;;;1.23;100.00
12172;BME280;6149;52.418;13.668;2022-12-08T08:11:26;100220.50;;;1.23;100.00
12172;BME280;6149;52.418;13.668;2022-12-08T08:13:52;100225.66;;;1.26;100.00
12172;BME280;6149;52.418;13.668;2022-12-08T08:16:20;100227.28;;;1.32;100.00
12172;BME280;6149;52.418;13.668;2022-12-08T08:18:49;100230.63;;;1.37;100.00
12172;BME280;6149;52.418;13.668;2022-12-08T08:21:19;100228.81;;;1.41;100.00
12172;BME280;6149;52.418;13.668;2022-12-08T08:23:46;100235.75;;;1.42;100.00
12172;BME280;6149;52.418;13.668;2022-12-08T08:26:14;100236.38;;;1.51;100.00
12172;BME280;6149;52.418;13.668;2022-12-08T08:28:43;100239.97;;;1.47;100.00
12172;BME280;6149;52.418;13.668;2022-12-08T08:31:10;100241.50;;;1.56;100.00
12172;BME280;6149;52.418;13.668;2022-12-08T08:33:38;100238.22;;;1.48;100.00
12172;BME280;6149;52.418;13.668;2022-12-08T08:36:06;100239.78;;;1.55;100.00
12172;BME280;6149;52.418;13.668;2022-12-08T08:38:34;100242.47;;;1.50;100.00
12172;BME280;6149;52.418;13.668;2022-12-08T08:41:08;100243.34;;;1.51;100.00
12172;BME280;6149;52.418;13.668;2022-12-08T08:43:36;100236.38;;;1.51;100.00
12172;BME280;6149;52.418;13.668;2022-12-08T08:46:05;100242.47;;;1.50;100.00
12172;BME280;6149;52.418;13.668;2022-12-08T08:48:34;100234.66;;;1.50;100.00
12172;BME280;6149;52.418;13.668;2022-12-08T08:51:07;100238.97;;;1.51;100.00
12172;BME280;6149;52.418;13.668;2022-12-08T08:53:34;100240.63;;;1.55;100.00
12172;BME280;6149;52.418;13.668;2022-12-08T08:56:02;100230.22;;;1.55;100.00
12172;BME280;6149;52.418;13.668;2022-12-08T08:58:30;100231.94;;;1.56;100.00
12172;BME280;6149;52.418;13.668;2022-12-08T09:00:57;100233.56;;;1.60;100.00
12172;BME280;6149;52.418;13.668;2022-12-08T09:03:27;100241.31;;;1.63;100.00
12172;BME280;6149;52.418;13.668;2022-12-08T09:05:55;100236.09;;;1.65;100.00
12172;BME280;6149;52.418;13.668;2022-12-08T09:08:22;100243.75;;;1.71;100.00
12172;BME280;6149;52.418;13.668;2022-12-08T09:10:49;100237.63;;;1.74;100.00
12172;BME280;6149;52.418;13.668;2022-12-08T09:13:16;100239.38;;;1.73;100.00
12172;BME280;6149;52.418;13.668;2022-12-08T09:15:44;100241.09;;;1.74;100.00
12172;BME280;6149;52.418;13.668;2022-12-08T09:18:12;100227.84;;;1.83;100.00
12172;BME280;6149;52.418;13.668;2022-12-08T09:20:42;100214.81;;;1.83;100.00
12172;BME280;6149;52.418;13.668;2022-12-08T09:23:09;100209.47;;;1.88;100.00
12172;BME280;6149;52.418;13.668;2022-12-08T09:25:38;100206.78;;;1.91;100.00
12172;BME280;6149;52.418;13.668;2022-12-08T09:28:06;100207.53;;;1.96;100.00
12172;BME280;6149;52.418;13.668;2022-12-08T09:30:34;100203.06;;;2.01;100.00
12172;BME280;6149;52.418;13.668;2022-12-08T09:33:01;100200.25;;;2.10;100.00
12172;BME280;6149;52.418;13.668;2022-12-08T09:35:28;100202.78;;;2.13;100.00
12172;BME280;6149;52.418;13.668;2022-12-08T09:37:56;100198.31;;;2.18;100.00
12172;BME280;6149;52.418;13.668;2022-12-08T09:40:25;100190.41;;;2.21;100.00
12172;BME280;6149;52.418;13.668;2022-12-08T09:42:57;100190.22;;;2.27;100.00
12172;BME280;6149;52.418;13.668;2022-12-08T09:45:33;100188.34;;;2.32;100.00
12172;BME280;6149;52.418;13.668;2022-12-08T09:48:04;100182.16;;;2.37;100.00
12172;BME280;6149;52.418;13.668;2022-12-08T09:50:36;100192.47;;;2.41;100.00
12172;BME280;6149;52.418;13.668;2022-12-08T09:53:13;100180.94;;;2.50;100.00
12172;BME280;6149;52.418;13.668;2022-12-08T09:55:53;100188.56;;;2.57;100.00
12172;BME280;6149;52.418;13.668;2022-12-08T09:58:31;100185.66;;;2.68;100.00
12172;BME280;6149;52.418;13.668;2022-12-08T10:01:11;100175.19;;;2.68;100.00
12172;BME280;6149;52.418;13.668;2022-12-08T10:03:39;100180.41;;;2.68;100.00
12172;BME280;6149;52.418;13.668;2022-12-08T10:06:11;100183.00;;;2.69;100.00
12172;BME280;6149;52.418;13.668;2022-12-08T10:08:54;100176.00;;;2.70;100.00
12172;BME280;6149;52.418;13.668;2022-12-08T10:11:31;100183.59;;;2.79;100.00
12172;BME280;6149;52.418;13.668;2022-12-08T10:14:14;100178.28;;;2.82;100.00
12172;BME280;6149;52.418;13.668;2022-12-08T10:16:52;100179.50;;;3.00;100.00
12172;BME280;6149;52.418;13.668;2022-12-08T10:19:25;100176.84;;;3.01;100.00
12172;BME280;6149;52.418;13.668;2022-12-08T10:21:55;100177.00;;;2.97;100.00
12172;BME280;6149;52.418;13.668;2022-12-08T10:24:25;100176.84;;;3.01;100.00
12172;BME280;6149;52.418;13.668;2022-12-08T10:26:58;100171.09;;;3.20;100.00
12172;BME280;6149;52.418;13.668;2022-12-08T10:29:26;100171.31;;;3.12;100.00
12172;BME280;6149;52.418;13.668;2022-12-08T10:31:56;100167.75;;;3.15;100.00
12172;BME280;6149;52.418;13.668;2022-12-08T10:34:24;100169.25;;;3.23;100.00
12172;BME280;6149;52.418;13.668;2022-12-08T10:36:52;100161.31;;;3.26;100.00
12172;BME280;6149;52.418;13.668;2022-12-08T10:39:43;100156.59;;;3.38;100.00
12172;BME280;6149;52.418;13.668;2022-12-08T10:42:17;100155.97;;;3.31;100.00
12172;BME280;6149;52.418;13.668;2022-12-08T10:44:53;100163.97;;;3.25;100.00
12172;BME280;6149;52.418;13.668;2022-12-08T10:47:26;100156.00;;;3.29;100.00
12172;BME280;6149;52.418;13.668;2022-12-08T10:50:16;100149.88;;;3.30;100.00
12172;BME280;6149;52.418;13.668;2022-12-08T10:52:45;100151.53;;;3.33;100.00
12172;BME280;6149;52.418;13.668;2022-12-08T10:55:17;100148.75;;;3.38;100.00
12172;BME280;6149;52.418;13.668;2022-12-08T10:57:45;100144.47;;;3.35;100.00
12172;BME280;6149;52.418;13.668;2022-12-08T11:00:14;100152.09;;;3.43;100.00
12172;BME280;6149;52.418;13.668;2022-12-08T11:02:51;100144.28;;;3.41;100.00
12172;BME280;6149;52.418;13.668;2022-12-08T11:05:21;100141.78;;;3.38;100.00
12172;BME280;6149;52.418;13.668;2022-12-08T11:07:52;100143.56;;;3.36;100.00
12172;BME280;6149;52.418;13.668;2022-12-08T11:10:29;100139.97;;;3.40;100.00
12172;BME280;6149;52.418;13.668;2022-12-08T11:13:00;100135.66;;;3.39;100.00
12172;BME280;6149;52.418;13.668;2022-12-08T11:15:33;100133.13;;;3.36;100.00
12172;BME280;6149;52.418;13.668;2022-12-08T11:18:07;100128.72;;;3.38;100.00
12172;BME280;6149;52.418;13.668;2022-12-08T11:20:43;100131.09;;;3.46;100.00
12172;BME280;6149;52.418;13.668;2022-12-08T11:23:19;100124.28;;;3.40;100.00
12172;BME280;6149;52.418;13.668;2022-12-08T11:25:49;100117.34;;;3.39;100.00
12172;BME280;6149;52.418;13.668;2022-12-08T11:28:21;100110.47;;;3.36;100.00
12172;BME280;6149;52.418;13.668;2022-12-08T11:30:53;100112.13;;;3.39;100.00
12172;BME280;6149;52.418;13.668;2022-12-08T11:33:23;100113.03;;;3.38;100.00
12172;BME280;6149;52.418;13.668;2022-12-08T11:35:54;100115.66;;;3.38;100.00
12172;BME280;6149;52.418;13.668;2022-12-08T11:38:26;100118.13;;;3.43;100.00
12172;BME280;6149;52.418;13.668;2022-12-08T11:40:58;100105.81;;;3.46;100.00
12172;BME280;6149;52.418;13.668;2022-12-08T11:43:35;100114.47;;;3.48;100.00
12172;BME280;6149;52.418;13.668;2022-12-08T11:46:12;100111.88;;;3.47;100.00
12172;BME280;6149;52.418;13.668;2022-12-08T11:48:45;100111.78;;;3.50;100.00
12172;BME280;6149;52.418;13.668;2022-12-08T11:51:18;100121.53;;;3.45;100.00
12172;BME280;6149;52.418;13.668;2022-12-08T11:54:01;100113.75;;;3.43;100.00
12172;BME280;6149;52.418;13.668;2022-12-08T11:56:40;100110.41;;;3.38;100.00
12172;BME280;6149;52.418;13.668;2022-12-08T11:59:16;100116.50;;;3.39;100.00
12172;BME280;6149;52.418;13.668;2022-12-08T12:01:45;100120.34;;;3.55;100.00
12172;BME280;6149;52.418;13.668;2022-12-08T12:04:17;100109.41;;;3.42;100.00
12172;BME280;6149;52.418;13.668;2022-12-08T12:10:23;100115.88;;;3.32;100.00
12172;BME280;6149;52.418;13.668;2022-12-08T12:13:21;100119.88;;;3.42;100.00
12172;BME280;6149;52.418;13.668;2022-12-08T12:16:15;100123.47;;;3.38;100.00
12172;BME280;6149;52.418;13.668;2022-12-08T12:18:50;100123.47;;;3.38;100.00
12172;BME280;6149;52.418;13.668;2022-12-08T12:21:22;100122.56;;;3.39;100.00
12172;BME280;6149;52.418;13.668;2022-12-08T12:23:53;100130.91;;;3.24;100.00
12172;BME280;6149;52.418;13.668;2022-12-08T12:26:24;100128.44;;;3.19;100.00
12172;BME280;6149;52.418;13.668;2022-12-08T12:28:56;100127.63;;;3.17;100.00
12172;BME280;6149;52.418;13.668;2022-12-08T12:31:27;100128.75;;;3.09;100.00
12172;BME280;6149;52.418;13.668;2022-12-08T12:34:05;100129.66;;;3.08;100.00
12172;BME280;6149;52.418;13.668;2022-12-08T12:36:45;100119.00;;;3.15;100.00
12172;BME280;6149;52.418;13.668;2022-12-08T12:39:14;100116.78;;;3.01;100.00
12172;BME280;6149;52.418;13.668;2022-12-08T12:41:46;100130.81;;;2.97;100.00
12172;BME280;6149;52.418;13.668;2022-12-08T12:44:40;100123.75;;;3.01;100.00
12172;BME280;6149;52.418;13.668;2022-12-08T12:47:13;100122.09;;;2.98;100.00
12172;BME280;6149;52.418;13.668;2022-12-08T12:50:05;100120.59;;;2.91;100.00
12172;BME280;6149;52.418;13.668;2022-12-08T12:52:35;100119.88;;;2.86;100.00
12172;BME280;6149;52.418;13.668;2022-12-08T12:55:20;100118.78;;;2.93;100.00
12172;BME280;6149;52.418;13.668;2022-12-08T12:57:52;100123.94;;;2.96;100.00
12172;BME280;6149;52.418;13.668;2022-12-08T13:00:24;100119.47;;;2.98;100.00
12172;BME280;6149;52.418;13.668;2022-12-08T13:02:53;100116.19;;;2.93;100.00
12172;BME280;6149;52.418;13.668;2022-12-08T13:05:23;100118.78;;;2.93;100.00
12172;BME280;6149;52.418;13.668;2022-12-08T13:07:53;100110.91;;;2.95;100.00
12172;BME280;6149;52.418;13.668;2022-12-08T13:10:25;100117.13;;;2.91;100.00